sensor_id;sensor_type;location;lat;lon;timestamp;P1;durP1;ratioP1;P2;durP2;ratioP2
44578;SDS011;37422;51.402;0.016;2022-10-15T00:01:40;19.83;;;8.30;;
44578;SDS011;37422;51.402;0.016;2022-10-15T00:06:38;14.18;;;6.28;;
44578;SDS011;37422;51.402;0.016;2022-10-15T00:09:06;14.00;;;6.30;;
44578;SDS011;37422;51.402;0.016;2022-10-15T00:11:34;11.75;;;5.38;;
44578;SDS011;37422;51.402;0.016;2022-10-15T00:14:02;16.85;;;6.20;;
44578;SDS011;37422;51.402;0.016;2022-10-15T00:16:29;12.32;;;5.25;;
44578;SDS011;37422;51.402;0.016;2022-10-15T00:18:59;15.90;;;6.70;;
44578;SDS011;37422;51.402;0.016;2022-10-15T00:21:28;14.05;;;5.75;;
44578;SDS011;37422;51.402;0.016;2022-10-15T00:23:57;17.67;;;6.93;;
44578;SDS011;37422;51.402;0.016;2022-10-15T00:26:25;12.85;;;5.15;;
44578;SDS011;37422;51.402;0.016;2022-10-15T00:28:56;13.23;;;5.65;;
44578;SDS011;37422;51.402;0.016;2022-10-15T00:31:28;11.85;;;5.95;;
44578;SDS011;37422;51.402;0.016;2022-10-15T00:33:58;13.20;;;6.35;;
44578;SDS011;37422;51.402;0.016;2022-10-15T00:36:29;19.50;;;7.20;;
44578;SDS011;37422;51.402;0.016;2022-10-15T00:38:59;11.23;;;5.80;;
44578;SDS011;37422;51.402;0.016;2022-10-15T00:41:29;12.40;;;5.47;;
44578;SDS011;37422;51.402;0.016;2022-10-15T00:46:52;17.23;;;7.32;;
44578;SDS011;37422;51.402;0.016;2022-10-15T00:49:23;23.48;;;9.50;;
44578;SDS011;37422;51.402;0.016;2022-10-15T00:51:58;17.40;;;8.55;;
44578;SDS011;37422;51.402;0.016;2022-10-15T00:54:39;21.02;;;9.05;;
44578;SDS011;37422;51.402;0.016;2022-10-15T00:57:10;24.73;;;8.60;;
44578;SDS011;37422;51.402;0.016;2022-10-15T00:59:43;16.25;;;7.78;;
44578;SDS011;37422;51.402;0.016;2022-10-15T01:02:19;18.98;;;6.93;;
44578;SDS011;37422;51.402;0.016;2022-10-15T01:04:48;18.83;;;6.85;;
44578;SDS011;37422;51.402;0.016;2022-10-15T01:07:17;13.95;;;5.72;;
44578;SDS011;37422;51.402;0.016;2022-10-15T01:09:45;14.80;;;6.05;;
44578;SDS011;37422;51.402;0.016;2022-10-15T01:18:19;13.15;;;6.03;;
44578;SDS011;37422;51.402;0.016;2022-10-15T01:20:59;10.88;;;5.10;;
44578;SDS011;37422;51.402;0.016;2022-10-15T01:34:47;13.75;;;5.63;;
44578;SDS011;37422;51.402;0.016;2022-10-15T01:40:20;11.88;;;5.35;;
44578;SDS011;37422;51.402;0.016;2022-10-15T01:42:58;15.40;;;6.13;;
44578;SDS011;37422;51.402;0.016;2022-10-15T01:46:17;19.67;;;7.05;;
44578;SDS011;37422;51.402;0.016;2022-10-15T01:49:02;12.48;;;5.65;;
44578;SDS011;37422;51.402;0.016;2022-10-15T01:51:32;15.48;;;6.10;;
44578;SDS011;37422;51.402;0.016;2022-10-15T01:54:04;13.20;;;5.63;;
44578;SDS011;37422;51.402;0.016;2022-10-15T01:56:36;15.73;;;6.10;;
44578;SDS011;37422;51.402;0.016;2022-10-15T01:59:05;14.63;;;6.13;;
44578;SDS011;37422;51.402;0.016;2022-10-15T02:01:40;16.85;;;6.07;;
44578;SDS011;37422;51.402;0.016;2022-10-15T02:04:20;11.70;;;5.70;;
44578;SDS011;37422;51.402;0.016;2022-10-15T02:07:10;12.38;;;5.53;;
44578;SDS011;37422;51.402;0.016;2022-10-15T02:17:42;21.33;;;7.18;;
44578;SDS011;37422;51.402;0.016;2022-10-15T02:20:27;16.88;;;6.65;;
44578;SDS011;37422;51.402;0.016;2022-10-15T02:23:01;19.65;;;7.22;;
44578;SDS011;37422;51.402;0.016;2022-10-15T02:25:34;15.60;;;6.53;;
44578;SDS011;37422;51.402;0.016;2022-10-15T02:28:06;18.02;;;7.28;;
44578;SDS011;37422;51.402;0.016;2022-10-15T02:30:37;19.75;;;7.18;;
44578;SDS011;37422;51.402;0.016;2022-10-15T02:33:11;18.60;;;7.40;;
44578;SDS011;37422;51.402;0.016;2022-10-15T02:35:41;18.77;;;7.10;;
44578;SDS011;37422;51.402;0.016;2022-10-15T02:38:14;19.30;;;7.47;;
44578;SDS011;37422;51.402;0.016;2022-10-15T02:40:46;17.42;;;6.47;;
44578;SDS011;37422;51.402;0.016;2022-10-15T02:43:17;22.27;;;7.87;;
44578;SDS011;37422;51.402;0.016;2022-10-15T02:45:51;20.25;;;7.80;;
44578;SDS011;37422;51.402;0.016;2022-10-15T02:48:20;19.80;;;7.88;;
44578;SDS011;37422;51.402;0.016;2022-10-15T02:50:50;22.70;;;7.03;;
44578;SDS011;37422;51.402;0.016;2022-10-15T02:53:18;22.70;;;8.25;;
44578;SDS011;37422;51.402;0.016;2022-10-15T02:55:46;25.85;;;8.18;;
44578;SDS011;37422;51.402;0.016;2022-10-15T02:58:14;22.25;;;7.57;;
44578;SDS011;37422;51.402;0.016;2022-10-15T03:00:43;22.33;;;7.90;;
44578;SDS011;37422;51.402;0.016;2022-10-15T03:03:12;22.38;;;7.38;;
44578;SDS011;37422;51.402;0.016;2022-10-15T03:05:40;24.77;;;8.57;;
44578;SDS011;37422;51.402;0.016;2022-10-15T03:08:11;27.15;;;8.73;;
44578;SDS011;37422;51.402;0.016;2022-10-15T03:10:40;19.90;;;6.90;;
44578;SDS011;37422;51.402;0.016;2022-10-15T03:13:08;22.88;;;7.55;;
44578;SDS011;37422;51.402;0.016;2022-10-15T03:15:43;22.60;;;7.53;;
44578;SDS011;37422;51.402;0.016;2022-10-15T03:18:13;19.27;;;7.68;;
44578;SDS011;37422;51.402;0.016;2022-10-15T03:20:41;17.40;;;6.97;;
44578;SDS011;37422;51.402;0.016;2022-10-15T03:23:09;21.42;;;7.15;;
44578;SDS011;37422;51.402;0.016;2022-10-15T03:25:38;20.45;;;7.55;;
44578;SDS011;37422;51.402;0.016;2022-10-15T03:28:06;17.17;;;6.75;;
44578;SDS011;37422;51.402;0.016;2022-10-15T03:30:41;18.38;;;7.00;;
44578;SDS011;37422;51.402;0.016;2022-10-15T03:33:09;20.98;;;7.55;;
44578;SDS011;37422;51.402;0.016;2022-10-15T03:35:38;18.27;;;6.82;;
44578;SDS011;37422;51.402;0.016;2022-10-15T03:38:07;18.88;;;7.85;;
44578;SDS011;37422;51.402;0.016;2022-10-15T03:40:38;17.50;;;7.40;;
44578;SDS011;37422;51.402;0.016;2022-10-15T03:43:35;16.42;;;7.72;;
44578;SDS011;37422;51.402;0.016;2022-10-15T03:46:14;21.77;;;7.50;;
44578;SDS011;37422;51.402;0.016;2022-10-15T03:48:49;19.17;;;7.65;;
44578;SDS011;37422;51.402;0.016;2022-10-15T03:51:19;19.80;;;7.25;;
44578;SDS011;37422;51.402;0.016;2022-10-15T03:54:02;19.35;;;8.52;;
44578;SDS011;37422;51.402;0.016;2022-10-15T03:56:37;21.40;;;7.22;;
44578;SDS011;37422;51.402;0.016;2022-10-15T03:59:35;18.42;;;7.72;;
44578;SDS011;37422;51.402;0.016;2022-10-15T04:02:03;22.65;;;9.10;;
44578;SDS011;37422;51.402;0.016;2022-10-15T04:04:31;19.48;;;8.10;;
44578;SDS011;37422;51.402;0.016;2022-10-15T04:07:05;21.52;;;7.78;;
44578;SDS011;37422;51.402;0.016;2022-10-15T04:09:34;18.02;;;7.50;;
44578;SDS011;37422;51.402;0.016;2022-10-15T04:14:53;24.10;;;8.70;;
44578;SDS011;37422;51.402;0.016;2022-10-15T04:17:23;18.95;;;8.15;;
44578;SDS011;37422;51.402;0.016;2022-10-15T04:19:57;20.17;;;7.78;;
44578;SDS011;37422;51.402;0.016;2022-10-15T04:22:26;22.88;;;8.70;;
44578;SDS011;37422;51.402;0.016;2022-10-15T04:24:59;19.75;;;7.82;;
44578;SDS011;37422;51.402;0.016;2022-10-15T04:27:28;21.35;;;7.85;;
44578;SDS011;37422;51.402;0.016;2022-10-15T04:30:07;22.73;;;8.20;;
44578;SDS011;37422;51.402;0.016;2022-10-15T04:32:39;18.42;;;7.28;;
44578;SDS011;37422;51.402;0.016;2022-10-15T04:35:07;19.27;;;7.80;;
44578;SDS011;37422;51.402;0.016;2022-10-15T04:38:01;17.65;;;7.93;;
44578;SDS011;37422;51.402;0.016;2022-10-15T04:40:56;15.32;;;6.80;;
44578;SDS011;37422;51.402;0.016;2022-10-15T04:43:47;16.92;;;8.32;;
44578;SDS011;37422;51.402;0.016;2022-10-15T04:46:15;15.27;;;6.38;;
44578;SDS011;37422;51.402;0.016;2022-10-15T04:48:43;18.27;;;6.90;;
44578;SDS011;37422;51.402;0.016;2022-10-15T04:51:14;17.65;;;7.45;;
44578;SDS011;37422;51.402;0.016;2022-10-15T04:54:10;21.85;;;8.82;;
44578;SDS011;37422;51.402;0.016;2022-10-15T04:56:53;17.83;;;7.18;;
44578;SDS011;37422;51.402;0.016;2022-10-15T04:59:20;18.00;;;7.07;;
44578;SDS011;37422;51.402;0.016;2022-10-15T05:02:13;17.85;;;6.90;;
44578;SDS011;37422;51.402;0.016;2022-10-15T05:04:42;16.20;;;6.90;;
44578;SDS011;37422;51.402;0.016;2022-10-15T05:07:10;19.52;;;7.65;;
44578;SDS011;37422;51.402;0.016;2022-10-15T05:09:40;18.73;;;7.80;;
44578;SDS011;37422;51.402;0.016;2022-10-15T05:12:13;14.30;;;5.82;;
44578;SDS011;37422;51.402;0.016;2022-10-15T05:14:41;15.90;;;7.13;;
44578;SDS011;37422;51.402;0.016;2022-10-15T05:17:15;16.67;;;6.90;;
44578;SDS011;37422;51.402;0.016;2022-10-15T05:19:44;17.27;;;6.85;;
44578;SDS011;37422;51.402;0.016;2022-10-15T05:22:17;15.95;;;8.10;;
44578;SDS011;37422;51.402;0.016;2022-10-15T05:24:51;15.80;;;6.70;;
44578;SDS011;37422;51.402;0.016;2022-10-15T05:27:26;18.75;;;7.90;;
44578;SDS011;37422;51.402;0.016;2022-10-15T05:29:59;14.70;;;7.13;;
44578;SDS011;37422;51.402;0.016;2022-10-15T05:32:36;21.25;;;7.95;;
44578;SDS011;37422;51.402;0.016;2022-10-15T05:35:09;18.38;;;8.27;;
44578;SDS011;37422;51.402;0.016;2022-10-15T05:38:07;18.23;;;6.95;;
44578;SDS011;37422;51.402;0.016;2022-10-15T05:40:35;16.45;;;6.43;;
44578;SDS011;37422;51.402;0.016;2022-10-15T05:43:06;18.15;;;6.70;;
44578;SDS011;37422;51.402;0.016;2022-10-15T05:45:34;15.80;;;6.47;;
44578;SDS011;37422;51.402;0.016;2022-10-15T05:48:04;15.57;;;5.90;;
44578;SDS011;37422;51.402;0.016;2022-10-15T05:50:32;18.83;;;6.75;;
44578;SDS011;37422;51.402;0.016;2022-10-15T05:53:02;18.77;;;7.00;;
44578;SDS011;37422;51.402;0.016;2022-10-15T05:55:43;14.10;;;6.38;;
44578;SDS011;37422;51.402;0.016;2022-10-15T05:58:11;16.05;;;6.35;;
44578;SDS011;37422;51.402;0.016;2022-10-15T06:00:38;19.38;;;7.38;;
44578;SDS011;37422;51.402;0.016;2022-10-15T06:03:09;15.75;;;6.15;;
44578;SDS011;37422;51.402;0.016;2022-10-15T06:05:41;17.25;;;7.55;;
44578;SDS011;37422;51.402;0.016;2022-10-15T06:08:09;14.73;;;6.53;;
44578;SDS011;37422;51.402;0.016;2022-10-15T06:10:37;18.13;;;6.78;;
44578;SDS011;37422;51.402;0.016;2022-10-15T06:13:06;15.57;;;6.45;;
44578;SDS011;37422;51.402;0.016;2022-10-15T06:15:39;16.52;;;6.90;;
44578;SDS011;37422;51.402;0.016;2022-10-15T06:18:11;20.83;;;7.03;;
44578;SDS011;37422;51.402;0.016;2022-10-15T06:20:42;17.65;;;7.22;;
44578;SDS011;37422;51.402;0.016;2022-10-15T06:23:11;18.45;;;6.70;;
44578;SDS011;37422;51.402;0.016;2022-10-15T06:25:39;16.52;;;7.55;;
44578;SDS011;37422;51.402;0.016;2022-10-15T06:28:07;18.95;;;6.82;;
44578;SDS011;37422;51.402;0.016;2022-10-15T06:30:41;19.08;;;6.85;;
44578;SDS011;37422;51.402;0.016;2022-10-15T06:33:10;17.73;;;7.07;;
44578;SDS011;37422;51.402;0.016;2022-10-15T06:35:44;19.77;;;7.13;;
44578;SDS011;37422;51.402;0.016;2022-10-15T06:38:12;14.68;;;6.55;;
44578;SDS011;37422;51.402;0.016;2022-10-15T06:40:45;17.70;;;6.90;;
44578;SDS011;37422;51.402;0.016;2022-10-15T06:43:13;16.63;;;6.88;;
44578;SDS011;37422;51.402;0.016;2022-10-15T06:45:45;17.42;;;6.28;;
44578;SDS011;37422;51.402;0.016;2022-10-15T06:48:21;17.08;;;6.63;;
44578;SDS011;37422;51.402;0.016;2022-10-15T06:50:49;14.38;;;5.82;;
44578;SDS011;37422;51.402;0.016;2022-10-15T06:53:17;18.80;;;7.10;;
44578;SDS011;37422;51.402;0.016;2022-10-15T06:55:45;17.27;;;6.95;;
44578;SDS011;37422;51.402;0.016;2022-10-15T06:58:13;18.13;;;8.05;;
44578;SDS011;37422;51.402;0.016;2022-10-15T07:00:40;17.73;;;6.55;;
44578;SDS011;37422;51.402;0.016;2022-10-15T07:03:08;18.65;;;8.23;;
44578;SDS011;37422;51.402;0.016;2022-10-15T07:05:36;21.48;;;9.40;;
44578;SDS011;37422;51.402;0.016;2022-10-15T07:08:03;22.48;;;10.45;;
44578;SDS011;37422;51.402;0.016;2022-10-15T07:10:33;20.10;;;9.52;;
44578;SDS011;37422;51.402;0.016;2022-10-15T07:13:02;21.15;;;11.18;;
44578;SDS011;37422;51.402;0.016;2022-10-15T07:15:30;23.60;;;10.55;;
44578;SDS011;37422;51.402;0.016;2022-10-15T07:18:01;34.35;;;14.20;;
44578;SDS011;37422;51.402;0.016;2022-10-15T07:20:31;28.50;;;12.73;;
44578;SDS011;37422;51.402;0.016;2022-10-15T07:23:03;29.63;;;13.18;;
44578;SDS011;37422;51.402;0.016;2022-10-15T07:28:02;23.13;;;9.43;;
44578;SDS011;37422;51.402;0.016;2022-10-15T07:30:30;23.10;;;10.02;;
44578;SDS011;37422;51.402;0.016;2022-10-15T07:33:01;15.88;;;7.22;;
44578;SDS011;37422;51.402;0.016;2022-10-15T07:35:33;15.10;;;5.25;;
44578;SDS011;37422;51.402;0.016;2022-10-15T07:38:03;9.90;;;4.00;;
44578;SDS011;37422;51.402;0.016;2022-10-15T07:40:31;13.15;;;5.20;;
44578;SDS011;37422;51.402;0.016;2022-10-15T07:42:59;9.73;;;3.50;;
44578;SDS011;37422;51.402;0.016;2022-10-15T07:45:30;10.18;;;3.05;;
44578;SDS011;37422;51.402;0.016;2022-10-15T07:47:59;6.05;;;2.40;;
44578;SDS011;37422;51.402;0.016;2022-10-15T07:50:26;7.07;;;2.33;;
44578;SDS011;37422;51.402;0.016;2022-10-15T07:53:05;8.88;;;2.50;;
44578;SDS011;37422;51.402;0.016;2022-10-15T07:55:34;9.48;;;2.70;;
44578;SDS011;37422;51.402;0.016;2022-10-15T07:58:02;11.15;;;2.30;;
44578;SDS011;37422;51.402;0.016;2022-10-15T08:00:32;8.07;;;2.20;;
44578;SDS011;37422;51.402;0.016;2022-10-15T08:03:01;11.30;;;4.38;;
44578;SDS011;37422;51.402;0.016;2022-10-15T08:05:28;9.27;;;2.20;;
44578;SDS011;37422;51.402;0.016;2022-10-15T08:07:56;5.68;;;1.90;;
44578;SDS011;37422;51.402;0.016;2022-10-15T08:10:24;6.45;;;1.63;;
44578;SDS011;37422;51.402;0.016;2022-10-15T08:12:52;10.07;;;1.95;;
44578;SDS011;37422;51.402;0.016;2022-10-15T08:15:22;8.73;;;1.73;;
44578;SDS011;37422;51.402;0.016;2022-10-15T08:17:56;5.75;;;1.80;;
44578;SDS011;37422;51.402;0.016;2022-10-15T08:20:25;5.25;;;1.85;;
44578;SDS011;37422;51.402;0.016;2022-10-15T08:22:56;7.25;;;1.60;;
44578;SDS011;37422;51.402;0.016;2022-10-15T08:25:24;10.05;;;1.58;;
44578;SDS011;37422;51.402;0.016;2022-10-15T08:27:54;3.50;;;1.52;;
44578;SDS011;37422;51.402;0.016;2022-10-15T08:30:24;5.47;;;1.77;;
44578;SDS011;37422;51.402;0.016;2022-10-15T08:32:52;1.48;;;0.90;;
44578;SDS011;37422;51.402;0.016;2022-10-15T08:35:20;7.43;;;1.27;;
44578;SDS011;37422;51.402;0.016;2022-10-15T08:37:48;3.53;;;0.85;;
44578;SDS011;37422;51.402;0.016;2022-10-15T08:40:22;4.88;;;1.10;;
44578;SDS011;37422;51.402;0.016;2022-10-15T08:42:50;7.60;;;1.33;;
44578;SDS011;37422;51.402;0.016;2022-10-15T08:45:21;4.18;;;1.20;;
44578;SDS011;37422;51.402;0.016;2022-10-15T08:48:02;4.20;;;1.05;;
44578;SDS011;37422;51.402;0.016;2022-10-15T08:51:14;7.40;;;1.50;;
44578;SDS011;37422;51.402;0.016;2022-10-15T08:53:55;5.68;;;1.58;;
44578;SDS011;37422;51.402;0.016;2022-10-15T08:56:30;2.30;;;1.00;;
44578;SDS011;37422;51.402;0.016;2022-10-15T08:59:29;4.38;;;1.00;;
44578;SDS011;37422;51.402;0.016;2022-10-15T09:02:13;3.92;;;0.90;;
44578;SDS011;37422;51.402;0.016;2022-10-15T09:04:53;3.78;;;1.45;;
44578;SDS011;37422;51.402;0.016;2022-10-15T09:07:33;3.28;;;1.00;;
44578;SDS011;37422;51.402;0.016;2022-10-15T09:10:11;3.85;;;1.00;;
44578;SDS011;37422;51.402;0.016;2022-10-15T09:15:24;3.85;;;1.05;;
44578;SDS011;37422;51.402;0.016;2022-10-15T09:17:57;4.15;;;1.38;;
44578;SDS011;37422;51.402;0.016;2022-10-15T09:20:32;3.65;;;1.15;;
44578;SDS011;37422;51.402;0.016;2022-10-15T09:23:07;2.53;;;0.93;;
44578;SDS011;37422;51.402;0.016;2022-10-15T09:25:44;2.80;;;1.30;;
44578;SDS011;37422;51.402;0.016;2022-10-15T09:28:41;4.22;;;1.27;;
44578;SDS011;37422;51.402;0.016;2022-10-15T09:31:40;5.72;;;1.08;;
44578;SDS011;37422;51.402;0.016;2022-10-15T09:34:33;4.53;;;1.10;;
44578;SDS011;37422;51.402;0.016;2022-10-15T09:37:11;4.70;;;1.52;;
44578;SDS011;37422;51.402;0.016;2022-10-15T09:40:43;5.13;;;1.23;;
44578;SDS011;37422;51.402;0.016;2022-10-15T09:43:04;3.03;;;1.13;;
44578;SDS011;37422;51.402;0.016;2022-10-15T09:45:32;7.10;;;1.45;;
44578;SDS011;37422;51.402;0.016;2022-10-15T09:48:05;3.25;;;1.35;;
44578;SDS011;37422;51.402;0.016;2022-10-15T09:50:43;8.68;;;1.75;;
44578;SDS011;37422;51.402;0.016;2022-10-15T09:56:35;5.18;;;1.00;;
44578;SDS011;37422;51.402;0.016;2022-10-15T09:59:13;7.43;;;2.53;;
44578;SDS011;37422;51.402;0.016;2022-10-15T10:04:29;5.38;;;1.10;;
44578;SDS011;37422;51.402;0.016;2022-10-15T10:07:00;4.93;;;1.25;;
44578;SDS011;37422;51.402;0.016;2022-10-15T10:12:18;4.05;;;1.13;;
44578;SDS011;37422;51.402;0.016;2022-10-15T10:17:31;8.60;;;1.15;;
44578;SDS011;37422;51.402;0.016;2022-10-15T10:20:22;6.40;;;1.50;;
44578;SDS011;37422;51.402;0.016;2022-10-15T10:22:53;4.68;;;1.13;;
44578;SDS011;37422;51.402;0.016;2022-10-15T10:33:26;4.50;;;1.10;;
44578;SDS011;37422;51.402;0.016;2022-10-15T10:35:55;10.90;;;2.22;;
44578;SDS011;37422;51.402;0.016;2022-10-15T10:38:26;2.53;;;0.98;;
44578;SDS011;37422;51.402;0.016;2022-10-15T10:41:04;6.15;;;1.00;;
44578;SDS011;37422;51.402;0.016;2022-10-15T10:43:38;5.45;;;1.13;;
44578;SDS011;37422;51.402;0.016;2022-10-15T10:46:19;8.55;;;1.10;;
44578;SDS011;37422;51.402;0.016;2022-10-15T10:48:50;7.22;;;1.15;;
44578;SDS011;37422;51.402;0.016;2022-10-15T10:51:23;5.45;;;1.10;;
44578;SDS011;37422;51.402;0.016;2022-10-15T10:56:38;7.55;;;1.20;;
44578;SDS011;37422;51.402;0.016;2022-10-15T10:59:27;7.18;;;1.60;;
44578;SDS011;37422;51.402;0.016;2022-10-15T11:02:00;9.70;;;1.67;;
44578;SDS011;37422;51.402;0.016;2022-10-15T11:04:32;7.22;;;1.52;;
44578;SDS011;37422;51.402;0.016;2022-10-15T11:07:25;6.78;;;1.10;;
44578;SDS011;37422;51.402;0.016;2022-10-15T11:10:20;8.82;;;1.40;;
44578;SDS011;37422;51.402;0.016;2022-10-15T11:15:47;5.32;;;1.17;;
44578;SDS011;37422;51.402;0.016;2022-10-15T11:27:51;4.28;;;1.35;;
44578;SDS011;37422;51.402;0.016;2022-10-15T11:30:45;7.53;;;1.33;;
44578;SDS011;37422;51.402;0.016;2022-10-15T11:39:26;9.88;;;1.52;;
44578;SDS011;37422;51.402;0.016;2022-10-15T11:42:15;5.47;;;1.30;;
44578;SDS011;37422;51.402;0.016;2022-10-15T11:44:57;8.48;;;1.40;;
44578;SDS011;37422;51.402;0.016;2022-10-15T11:50:27;13.48;;;1.75;;
44578;SDS011;37422;51.402;0.016;2022-10-15T11:55:53;8.02;;;1.20;;
44578;SDS011;37422;51.402;0.016;2022-10-15T11:58:32;4.63;;;1.05;;
44578;SDS011;37422;51.402;0.016;2022-10-15T12:01:06;6.53;;;1.40;;
44578;SDS011;37422;51.402;0.016;2022-10-15T12:03:45;7.18;;;1.35;;
44578;SDS011;37422;51.402;0.016;2022-10-15T12:06:35;7.30;;;1.45;;
44578;SDS011;37422;51.402;0.016;2022-10-15T12:09:15;3.75;;;1.05;;
44578;SDS011;37422;51.402;0.016;2022-10-15T12:12:16;7.43;;;1.17;;
44578;SDS011;37422;51.402;0.016;2022-10-15T12:20:57;8.90;;;1.60;;
44578;SDS011;37422;51.402;0.016;2022-10-15T12:28:52;6.13;;;1.38;;
44578;SDS011;37422;51.402;0.016;2022-10-15T12:31:41;6.65;;;1.00;;
44578;SDS011;37422;51.402;0.016;2022-10-15T12:34:38;10.02;;;2.20;;
44578;SDS011;37422;51.402;0.016;2022-10-15T12:37:15;5.68;;;1.42;;
44578;SDS011;37422;51.402;0.016;2022-10-15T12:39:45;3.53;;;1.02;;
44578;SDS011;37422;51.402;0.016;2022-10-15T12:45:00;4.28;;;1.50;;
44578;SDS011;37422;51.402;0.016;2022-10-15T12:52:49;8.52;;;2.78;;
44578;SDS011;37422;51.402;0.016;2022-10-15T12:55:26;6.32;;;1.25;;
44578;SDS011;37422;51.402;0.016;2022-10-15T12:58:05;6.68;;;1.90;;
44578;SDS011;37422;51.402;0.016;2022-10-15T13:03:57;8.65;;;1.60;;
44578;SDS011;37422;51.402;0.016;2022-10-15T13:06:33;8.85;;;1.92;;
44578;SDS011;37422;51.402;0.016;2022-10-15T13:17:04;7.45;;;1.70;;
44578;SDS011;37422;51.402;0.016;2022-10-15T13:19:46;10.50;;;1.65;;
44578;SDS011;37422;51.402;0.016;2022-10-15T13:22:20;6.75;;;2.05;;
44578;SDS011;37422;51.402;0.016;2022-10-15T13:24:55;5.28;;;1.23;;
44578;SDS011;37422;51.402;0.016;2022-10-15T13:27:25;3.63;;;1.25;;
44578;SDS011;37422;51.402;0.016;2022-10-15T13:30:14;12.57;;;2.40;;
44578;SDS011;37422;51.402;0.016;2022-10-15T13:32:53;7.78;;;1.23;;
44578;SDS011;37422;51.402;0.016;2022-10-15T13:35:23;5.90;;;1.30;;
44578;SDS011;37422;51.402;0.016;2022-10-15T13:37:55;6.53;;;1.50;;
44578;SDS011;37422;51.402;0.016;2022-10-15T13:40:27;10.52;;;1.73;;
44578;SDS011;37422;51.402;0.016;2022-10-15T13:42:56;5.20;;;1.30;;
44578;SDS011;37422;51.402;0.016;2022-10-15T13:45:29;5.70;;;1.40;;
44578;SDS011;37422;51.402;0.016;2022-10-15T13:47:57;8.07;;;1.90;;
44578;SDS011;37422;51.402;0.016;2022-10-15T13:55:48;6.95;;;1.27;;
44578;SDS011;37422;51.402;0.016;2022-10-15T14:03:27;10.32;;;2.08;;
44578;SDS011;37422;51.402;0.016;2022-10-15T14:05:57;11.30;;;2.17;;
44578;SDS011;37422;51.402;0.016;2022-10-15T14:08:36;6.90;;;1.38;;
44578;SDS011;37422;51.402;0.016;2022-10-15T14:13:51;8.43;;;2.40;;
44578;SDS011;37422;51.402;0.016;2022-10-15T14:21:41;9.95;;;2.30;;
44578;SDS011;37422;51.402;0.016;2022-10-15T14:24:15;8.90;;;1.63;;
44578;SDS011;37422;51.402;0.016;2022-10-15T14:26:46;12.18;;;1.83;;
44578;SDS011;37422;51.402;0.016;2022-10-15T14:29:15;10.02;;;1.92;;
44578;SDS011;37422;51.402;0.016;2022-10-15T14:31:50;10.90;;;2.05;;
44578;SDS011;37422;51.402;0.016;2022-10-15T14:34:36;11.13;;;1.75;;
44578;SDS011;37422;51.402;0.016;2022-10-15T14:40:15;10.45;;;2.28;;
44578;SDS011;37422;51.402;0.016;2022-10-15T14:45:20;11.13;;;2.67;;
44578;SDS011;37422;51.402;0.016;2022-10-15T14:48:01;9.07;;;1.80;;
44578;SDS011;37422;51.402;0.016;2022-10-15T14:50:40;17.95;;;5.07;;
44578;SDS011;37422;51.402;0.016;2022-10-15T14:53:15;8.38;;;2.50;;
44578;SDS011;37422;51.402;0.016;2022-10-15T14:55:47;15.18;;;2.50;;
44578;SDS011;37422;51.402;0.016;2022-10-15T14:58:19;12.70;;;2.33;;
44578;SDS011;37422;51.402;0.016;2022-10-15T15:00:53;9.77;;;3.05;;
44578;SDS011;37422;51.402;0.016;2022-10-15T15:03:28;13.55;;;2.70;;
44578;SDS011;37422;51.402;0.016;2022-10-15T15:06:07;14.00;;;2.78;;
44578;SDS011;37422;51.402;0.016;2022-10-15T15:08:39;17.25;;;2.85;;
44578;SDS011;37422;51.402;0.016;2022-10-15T15:11:09;18.70;;;3.85;;
44578;SDS011;37422;51.402;0.016;2022-10-15T15:13:47;15.02;;;3.58;;
44578;SDS011;37422;51.402;0.016;2022-10-15T15:16:16;11.65;;;1.83;;
44578;SDS011;37422;51.402;0.016;2022-10-15T15:18:45;16.58;;;2.40;;
44578;SDS011;37422;51.402;0.016;2022-10-15T15:21:24;12.88;;;2.13;;
44578;SDS011;37422;51.402;0.016;2022-10-15T15:23:53;13.75;;;2.60;;
44578;SDS011;37422;51.402;0.016;2022-10-15T15:26:25;21.05;;;3.40;;
44578;SDS011;37422;51.402;0.016;2022-10-15T15:28:57;24.23;;;3.38;;
44578;SDS011;37422;51.402;0.016;2022-10-15T15:31:25;14.20;;;2.88;;
44578;SDS011;37422;51.402;0.016;2022-10-15T15:33:55;15.38;;;2.55;;
44578;SDS011;37422;51.402;0.016;2022-10-15T15:36:22;15.43;;;2.78;;
44578;SDS011;37422;51.402;0.016;2022-10-15T15:38:53;11.73;;;2.20;;
44578;SDS011;37422;51.402;0.016;2022-10-15T15:41:24;8.30;;;1.52;;
44578;SDS011;37422;51.402;0.016;2022-10-15T15:43:52;10.98;;;2.78;;
44578;SDS011;37422;51.402;0.016;2022-10-15T15:46:21;8.43;;;1.58;;
44578;SDS011;37422;51.402;0.016;2022-10-15T15:48:49;8.75;;;1.52;;
44578;SDS011;37422;51.402;0.016;2022-10-15T15:53:56;10.25;;;2.40;;
44578;SDS011;37422;51.402;0.016;2022-10-15T15:56:24;13.05;;;1.77;;
44578;SDS011;37422;51.402;0.016;2022-10-15T15:58:53;11.10;;;2.20;;
44578;SDS011;37422;51.402;0.016;2022-10-15T16:01:25;8.25;;;1.70;;
44578;SDS011;37422;51.402;0.016;2022-10-15T16:03:52;15.65;;;3.80;;
44578;SDS011;37422;51.402;0.016;2022-10-15T16:06:20;11.35;;;2.67;;
44578;SDS011;37422;51.402;0.016;2022-10-15T16:08:50;7.47;;;1.75;;
44578;SDS011;37422;51.402;0.016;2022-10-15T16:11:19;9.77;;;1.52;;
44578;SDS011;37422;51.402;0.016;2022-10-15T16:13:54;8.73;;;2.28;;
44578;SDS011;37422;51.402;0.016;2022-10-15T16:16:27;11.20;;;2.65;;
44578;SDS011;37422;51.402;0.016;2022-10-15T16:18:54;16.85;;;2.88;;
44578;SDS011;37422;51.402;0.016;2022-10-15T16:21:23;9.57;;;1.85;;
44578;SDS011;37422;51.402;0.016;2022-10-15T16:23:52;6.63;;;2.07;;
44578;SDS011;37422;51.402;0.016;2022-10-15T16:26:21;5.60;;;2.28;;
44578;SDS011;37422;51.402;0.016;2022-10-15T16:28:52;9.50;;;1.63;;
44578;SDS011;37422;51.402;0.016;2022-10-15T16:31:28;4.43;;;2.05;;
44578;SDS011;37422;51.402;0.016;2022-10-15T16:33:59;18.38;;;2.60;;
44578;SDS011;37422;51.402;0.016;2022-10-15T16:36:27;11.38;;;3.13;;
44578;SDS011;37422;51.402;0.016;2022-10-15T16:38:56;12.27;;;2.38;;
44578;SDS011;37422;51.402;0.016;2022-10-15T16:41:24;15.70;;;3.20;;
44578;SDS011;37422;51.402;0.016;2022-10-15T16:43:52;13.73;;;2.40;;
44578;SDS011;37422;51.402;0.016;2022-10-15T16:46:20;12.57;;;2.50;;
44578;SDS011;37422;51.402;0.016;2022-10-15T16:48:54;14.98;;;2.13;;
44578;SDS011;37422;51.402;0.016;2022-10-15T17:18:05;19.08;;;3.85;;
44578;SDS011;37422;51.402;0.016;2022-10-15T17:20:33;18.05;;;3.00;;
44578;SDS011;37422;51.402;0.016;2022-10-15T17:23:01;11.85;;;2.40;;
44578;SDS011;37422;51.402;0.016;2022-10-15T17:25:37;20.70;;;2.83;;
44578;SDS011;37422;51.402;0.016;2022-10-15T17:28:05;21.67;;;3.03;;
44578;SDS011;37422;51.402;0.016;2022-10-15T17:30:37;17.60;;;2.97;;
44578;SDS011;37422;51.402;0.016;2022-10-15T17:33:05;15.52;;;4.03;;
44578;SDS011;37422;51.402;0.016;2022-10-15T17:35:36;19.40;;;4.00;;
44578;SDS011;37422;51.402;0.016;2022-10-15T17:38:03;22.90;;;5.65;;
44578;SDS011;37422;51.402;0.016;2022-10-15T17:40:31;17.17;;;3.13;;
44578;SDS011;37422;51.402;0.016;2022-10-15T17:42:59;13.43;;;3.22;;
44578;SDS011;37422;51.402;0.016;2022-10-15T17:45:27;16.83;;;3.50;;
44578;SDS011;37422;51.402;0.016;2022-10-15T17:47:55;19.17;;;3.17;;
44578;SDS011;37422;51.402;0.016;2022-10-15T17:50:23;16.80;;;3.08;;
44578;SDS011;37422;51.402;0.016;2022-10-15T17:52:50;23.63;;;3.95;;
44578;SDS011;37422;51.402;0.016;2022-10-15T17:55:18;17.25;;;3.40;;
44578;SDS011;37422;51.402;0.016;2022-10-15T17:57:46;22.45;;;3.85;;
44578;SDS011;37422;51.402;0.016;2022-10-15T18:00:16;27.55;;;5.25;;
44578;SDS011;37422;51.402;0.016;2022-10-15T18:02:46;18.77;;;3.28;;
44578;SDS011;37422;51.402;0.016;2022-10-15T18:05:15;23.55;;;5.35;;
44578;SDS011;37422;51.402;0.016;2022-10-15T18:07:43;27.23;;;6.07;;